Time;durP1;ratioP1;P1;durP2;ratioP2;P2;SDS_P1;SDS_P2;PMS_P1;PMS_P2;Temp;Humidity;BMP_temperature;BMP_pressure;BME280_temperature;BME280_humidity;BME280_pressure;Samples;Min_cycle;Max_cycle;Signal;HPM_P1;HPM_P2
2021/04/29 00:01:33;;;;;;;1.50;1.00;;;;;;;5.72;55.80;99854.05;1751988;79;21198;-53
2021/04/29 00:04:01;;;;;;;1.47;1.00;;;;;;;5.71;55.85;99854.97;1750843;79;21239;-51
2021/04/29 00:06:28;;;;;;;2.10;1.00;;;;;;;5.70;55.95;99855.88;1751678;79;22605;-51
2021/04/29 00:08:56;;;;;;;3.67;1.03;;;;;;;5.69;56.01;99858.16;1749313;79;21444;-52
2021/04/29 00:11:23;;;;;;;1.93;1.30;;;;;;;5.69;56.05;99858.16;1753325;79;21250;-52
2021/04/29 00:13:51;;;;;;;1.77;1.13;;;;;;;5.67;56.13;99854.20;1696121;82;21551;-51
2021/04/29 00:16:18;;;;;;;1.90;0.93;;;;;;;5.67;56.21;99854.65;1748905;79;21198;-50
2021/04/29 00:18:46;;;;;;;4.90;1.10;;;;;;;5.66;56.36;99856.90;1753837;79;21669;-52
2021/04/29 00:21:13;;;;;;;1.40;0.97;;;;;;;5.65;56.51;99856.48;1752460;79;21202;-50
2021/04/29 00:23:41;;;;;;;3.03;1.23;;;;;;;5.63;56.60;99851.17;1712917;81;21473;-51
2021/04/29 00:26:09;;;;;;;4.07;1.20;;;;;;;5.60;56.71;99850.39;1751239;79;21251;-50
2021/04/29 00:28:36;;;;;;;1.63;1.10;;;;;;;5.59;56.84;99849.97;1751187;79;21179;-50
2021/04/29 00:31:04;;;;;;;1.73;1.10;;;;;;;5.55;56.91;99846.95;1752744;79;21439;-52
2021/04/29 00:33:31;;;;;;;1.87;1.30;;;;;;;5.53;56.96;99850.14;1750496;79;21223;-50
2021/04/29 00:38:35;;;;;;;2.10;1.52;;;;;;;5.51;57.15;99851.52;1851390;75;27718;-51
2021/04/29 00:41:02;;;;;;;2.67;1.67;;;;;;;5.49;57.13;99849.80;1840699;76;21175;-53
2021/04/29 00:43:32;;;;;;;2.10;1.40;;;;;;;5.53;57.18;99852.33;1780489;79;21201;-51
2021/04/29 00:45:59;;;;;;;2.63;1.10;;;;;;;5.49;57.32;99849.34;1800204;78;21129;-52
2021/04/29 00:48:26;;;;;;;3.73;1.20;;;;;;;5.45;57.42;99852.11;1800009;78;21159;-52
2021/04/29 00:50:54;;;;;;;1.80;1.20;;;;;;;5.41;57.52;99853.12;1785370;78;21229;-51
2021/04/29 00:53:38;;;;;;;1.73;1.17;;;;;;;5.36;57.63;99844.36;1776860;79;21763;-51
2021/04/29 00:56:07;;;;;;;1.60;1.30;;;;;;;5.30;57.69;99854.27;1769761;78;21171;-52
2021/04/29 00:58:34;;;;;;;2.53;1.40;;;;;;;5.25;57.81;99846.84;1768158;78;21167;-52
2021/04/29 01:01:03;;;;;;;2.07;1.07;;;;;;;5.22;57.91;99849.58;1800627;78;21214;-51
2021/04/29 01:03:51;;;;;;;2.70;1.93;;;;;;;5.17;58.04;99846.16;1803933;78;20914;-52
2021/04/29 01:06:31;;;;;;;2.63;1.87;;;;;;;5.14;58.21;99841.34;1775564;78;21221;-52
2021/04/29 01:09:07;;;;;;;1.90;1.00;;;;;;;5.10;58.37;99843.69;1804871;78;21395;-53
2021/04/29 01:11:36;;;;;;;2.57;1.50;;;;;;;5.04;58.50;99841.14;1777338;78;21218;-52
2021/04/29 01:14:04;;;;;;;3.13;1.43;;;;;;;5.00;58.67;99843.03;1774339;78;21211;-51
2021/04/29 01:16:32;;;;;;;4.40;1.53;;;;;;;4.97;58.75;99840.87;1800437;78;21226;-52
2021/04/29 01:18:59;;;;;;;2.57;1.53;;;;;;;4.93;58.90;99846.77;1798712;78;21466;-52
2021/04/29 01:21:28;;;;;;;2.23;1.20;;;;;;;4.90;59.04;99841.48;1776313;78;21371;-51
2021/04/29 01:24:14;;;;;;;3.00;1.40;;;;;;;4.87;59.14;99841.55;1802995;78;21488;-51
2021/04/29 01:26:53;;;;;;;1.67;1.37;;;;;;;4.84;59.24;99837.64;1776562;78;21433;-51
2021/04/29 01:29:23;;;;;;;2.40;1.60;;;;;;;4.81;59.36;99841.70;1773309;78;21214;-51
2021/04/29 01:31:52;;;;;;;2.53;1.60;;;;;;;4.78;59.45;99840.43;1764935;79;21589;-52
2021/04/29 01:34:22;;;;;;;2.57;1.60;;;;;;;4.74;59.55;99846.31;1774174;79;22223;-51
2021/04/29 01:36:52;;;;;;;3.77;1.50;;;;;;;4.70;59.67;99852.61;1785005;78;21718;-54
2021/04/29 01:39:19;;;;;;;2.20;1.40;;;;;;;4.65;59.80;99846.97;1804180;78;21122;-52
2021/04/29 01:41:49;;;;;;;2.30;1.70;;;;;;;4.61;59.90;99849.27;1804916;78;21627;-51
2021/04/29 01:44:18;;;;;;;3.60;1.47;;;;;;;4.55;60.04;99845.84;1778875;78;21610;-51
2021/04/29 01:46:47;;;;;;;1.97;1.60;;;;;;;4.52;60.18;99847.69;1803583;78;22638;-52
2021/04/29 01:49:14;;;;;;;3.40;1.90;;;;;;;4.48;60.26;99849.56;1809765;78;21144;-52
2021/04/29 01:51:42;;;;;;;4.43;1.97;;;;;;;4.45;60.37;99851.41;1798985;78;21459;-50
2021/04/29 01:54:11;;;;;;;4.80;3.07;;;;;;;4.42;60.47;99855.49;1797088;78;21177;-52
2021/04/29 01:56:39;;;;;;;4.43;2.20;;;;;;;4.39;60.59;99852.88;1776626;78;21198;-50
2021/04/29 01:59:07;;;;;;;4.37;1.90;;;;;;;4.33;60.71;99853.91;1796213;78;21394;-52
2021/04/29 02:01:38;;;;;;;2.77;2.27;;;;;;;4.29;60.79;99856.20;1776607;78;21152;-52
2021/04/29 02:04:08;;;;;;;4.33;2.03;;;;;;;4.26;60.86;99856.70;1801618;78;21613;-52
2021/04/29 02:06:37;;;;;;;3.53;2.27;;;;;;;4.23;60.96;99859.45;1792769;78;21533;-52
2021/04/29 02:09:06;;;;;;;3.40;2.43;;;;;;;4.21;61.11;99857.27;1777219;78;21102;-52
2021/04/29 02:11:55;;;;;;;3.93;2.60;;;;;;;4.19;61.22;99865.28;1774115;78;21299;-50
2021/04/29 02:14:42;;;;;;;5.73;2.60;;;;;;;4.17;61.35;99861.31;1799681;78;21128;-50
2021/04/29 02:17:15;;;;;;;2.93;2.17;;;;;;;4.16;61.46;99858.71;1803478;78;21499;-52
2021/04/29 02:19:43;;;;;;;4.70;2.33;;;;;;;4.15;61.65;99866.27;1801091;78;21193;-51
2021/04/29 02:22:12;;;;;;;4.33;1.90;;;;;;;4.13;61.73;99864.09;1784249;78;21581;-51
2021/04/29 02:24:39;;;;;;;2.37;1.90;;;;;;;4.12;61.87;99861.88;1800173;78;21378;-52
2021/04/29 02:27:08;;;;;;;4.23;2.20;;;;;;;4.12;61.93;99863.20;1788208;78;21213;-51
2021/04/29 02:29:36;;;;;;;3.67;2.03;;;;;;;4.11;62.06;99861.45;1802980;78;21131;-51
2021/04/29 02:32:04;;;;;;;4.07;2.00;;;;;;;4.11;62.13;99864.56;1785009;78;21084;-52
2021/04/29 02:34:32;;;;;;;3.90;2.27;;;;;;;4.11;62.21;99860.56;1800847;78;20985;-52
2021/04/29 02:37:00;;;;;;;2.27;1.90;;;;;;;4.09;62.31;99863.26;1793776;78;22132;-51
2021/04/29 02:39:29;;;;;;;3.47;2.60;;;;;;;4.10;62.38;99859.69;1790516;79;21154;-51
2021/04/29 02:41:57;;;;;;;3.03;2.27;;;;;;;4.11;62.43;99861.45;1788482;79;21139;-52
2021/04/29 02:44:26;;;;;;;2.30;1.77;;;;;;;4.11;62.52;99859.23;1788874;79;21111;-52
2021/04/29 02:46:53;;;;;;;2.50;1.73;;;;;;;4.12;62.57;99861.00;1788235;79;21444;-51
2021/04/29 02:49:23;;;;;;;4.13;1.53;;;;;;;4.14;62.62;99861.85;1787710;79;21338;-52
2021/04/29 02:54:12;;;;;;;4.83;1.53;;;;;;;4.25;62.74;99854.52;1795182;78;26870;-51
2021/04/29 02:56:40;;;;;;;3.50;1.40;;;;;;;4.25;62.81;99861.64;1713043;82;21608;-52
2021/04/29 02:59:08;;;;;;;3.33;1.20;;;;;;;4.29;62.78;99860.19;1715410;81;21753;-51
2021/04/29 03:01:37;;;;;;;1.80;1.10;;;;;;;4.32;62.84;99860.59;1717723;81;21715;-52
2021/04/29 03:04:04;;;;;;;3.30;1.50;;;;;;;4.34;62.91;99856.96;1714752;83;21024;-52
2021/04/29 03:06:32;;;;;;;3.23;1.47;;;;;;;4.37;62.91;99854.24;1726170;81;20996;-52
2021/04/29 03:08:59;;;;;;;3.57;2.00;;;;;;;4.40;62.83;99855.52;1739589;81;21131;-53
2021/04/29 03:11:27;;;;;;;3.20;1.70;;;;;;;4.44;62.76;99853.64;1737941;81;22947;-53
2021/04/29 03:13:55;;;;;;;2.70;1.83;;;;;;;4.46;62.73;99850.50;1741923;81;21481;-52
2021/04/29 03:16:22;;;;;;;3.30;1.87;;;;;;;4.47;62.76;99857.14;1739085;81;21189;-51
2021/04/29 03:18:49;;;;;;;3.20;1.80;;;;;;;4.50;62.71;99852.20;1739092;81;21285;-52
2021/04/29 03:21:17;;;;;;;10.40;5.00;;;;;;;4.52;62.64;99862.35;1719810;81;21216;-51
2021/04/29 03:23:44;;;;;;;13.57;5.37;;;;;;;4.54;62.64;99859.20;1735952;81;21414;-51
2021/04/29 03:26:11;;;;;;;5.97;3.80;;;;;;;4.55;62.61;99856.51;1738285;81;22822;-51
2021/04/29 03:28:38;;;;;;;6.53;3.83;;;;;;;4.59;62.66;99865.33;1738906;81;21182;-53
2021/04/29 03:31:06;;;;;;;8.13;4.20;;;;;;;4.62;62.71;99861.70;1739660;81;21175;-53
2021/04/29 03:33:33;;;;;;;4.47;2.83;;;;;;;4.63;62.75;99864.33;1737340;81;21163;-51
2021/04/29 03:36:01;;;;;;;7.07;3.47;;;;;;;4.66;62.78;99868.28;1715743;81;21517;-53
2021/04/29 03:38:28;;;;;;;4.40;2.83;;;;;;;4.68;62.84;99871.76;1723617;81;21243;-52
2021/04/29 03:40:55;;;;;;;8.67;2.90;;;;;;;4.73;62.88;99869.00;1725742;81;22752;-51
2021/04/29 03:43:23;;;;;;;3.67;2.47;;;;;;;4.77;62.80;99868.89;1728466;81;21191;-52
2021/04/29 03:45:50;;;;;;;3.20;2.03;;;;;;;4.81;62.78;99866.59;1726072;81;21076;-52
2021/04/29 03:48:17;;;;;;;3.33;1.73;;;;;;;4.87;62.77;99869.55;1724063;81;21222;-51
2021/04/29 03:50:46;;;;;;;4.33;2.90;;;;;;;4.93;62.78;99864.95;1729137;81;21233;-53
2021/04/29 03:53:13;;;;;;;6.03;2.87;;;;;;;5.04;62.75;99867.82;1721105;81;21152;-51
2021/04/29 03:55:40;;;;;;;5.17;2.23;;;;;;;5.15;62.63;99870.66;1721399;81;21167;-50
2021/04/29 03:58:07;;;;;;;4.40;3.10;;;;;;;5.30;62.49;99861.39;1722302;81;21192;-52
2021/04/29 04:00:35;;;;;;;5.23;2.57;;;;;;;5.51;62.31;99869.33;1720817;81;22925;-53
2021/04/29 04:03:02;;;;;;;3.70;2.20;;;;;;;5.74;61.99;99866.92;1719822;81;21245;-51
2021/04/29 04:05:30;;;;;;;4.37;2.67;;;;;;;6.01;61.50;99863.98;1723023;81;21180;-51
2021/04/29 04:07:58;;;;;;;3.40;2.73;;;;;;;6.22;60.94;99866.03;1718155;81;21215;-52
2021/04/29 04:10:25;;;;;;;4.17;2.97;;;;;;;6.41;60.60;99863.25;1724978;81;21145;-50
2021/04/29 04:12:52;;;;;;;3.83;2.60;;;;;;;6.60;60.14;99858.23;1720060;81;21640;-52
2021/04/29 04:15:19;;;;;;;3.23;2.60;;;;;;;6.77;59.45;99863.94;1719864;81;21635;-51
2021/04/29 04:17:46;;;;;;;19.80;3.20;;;;;;;6.86;58.96;99857.42;1721161;81;21553;-51
2021/04/29 04:20:15;;;;;;;6.43;2.33;;;;;;;6.91;58.70;99864.83;1708456;81;21499;-52
2021/04/29 04:22:43;;;;;;;8.77;2.57;;;;;;;6.94;58.63;99858.52;1712552;81;21121;-51
2021/04/29 04:25:11;;;;;;;3.20;2.27;;;;;;;6.95;58.53;99856.27;1721960;81;21376;-52
2021/04/29 04:27:41;;;;;;;7.70;2.27;;;;;;;6.96;58.52;99860.23;1723008;81;21295;-51
2021/04/29 04:30:10;;;;;;;2.47;1.97;;;;;;;6.96;58.51;99852.66;1723921;81;21196;-51
2021/04/29 04:32:37;;;;;;;21.27;2.43;;;;;;;6.96;58.55;99853.54;1723248;81;21470;-51
2021/04/29 04:35:06;;;;;;;4.00;2.00;;;;;;;6.96;58.53;99852.66;1712564;81;21226;-51
2021/04/29 04:37:33;;;;;;;4.47;2.27;;;;;;;6.97;58.68;99854.42;1720682;81;22296;-51
2021/04/29 04:40:00;;;;;;;2.97;1.97;;;;;;;6.98;58.76;99854.80;1726379;81;21204;-52
2021/04/29 04:42:28;;;;;;;5.03;2.03;;;;;;;6.99;58.83;99854.76;1722163;81;21171;-51
2021/04/29 04:44:57;;;;;;;1.57;1.20;;;;;;;7.00;58.97;99854.30;1720548;81;21215;-51
2021/04/29 04:47:24;;;;;;;3.13;1.70;;;;;;;7.01;59.20;99858.73;1722485;81;21647;-51
2021/04/29 04:49:51;;;;;;;4.33;1.47;;;;;;;7.03;59.13;99856.43;1728496;81;21291;-51
2021/04/29 04:52:18;;;;;;;2.43;1.40;;;;;;;7.06;59.15;99864.83;1719476;81;21242;-50
2021/04/29 04:54:48;;;;;;;4.93;1.27;;;;;;;7.08;59.03;99857.61;1740302;80;21189;-50
2021/04/29 04:57:16;;;;;;;9.33;1.70;;;;;;;7.10;58.96;99857.10;1742453;80;21218;-50
2021/04/29 04:59:44;;;;;;;2.70;1.50;;;;;;;7.11;58.96;99858.39;1719339;81;21586;-50
2021/04/29 05:02:11;;;;;;;2.53;1.63;;;;;;;7.12;59.04;99857.47;1741147;80;21390;-51
2021/04/29 05:04:39;;;;;;;3.40;1.70;;;;;;;7.16;59.11;99859.11;1739587;80;21206;-50
2021/04/29 05:07:06;;;;;;;15.77;1.93;;;;;;;7.18;59.15;99859.06;1742058;80;21159;-49
2021/04/29 05:09:35;;;;;;;3.03;2.00;;;;;;;7.23;59.22;99863.79;1745029;80;21591;-51
2021/04/29 05:12:03;;;;;;;4.87;1.93;;;;;;;7.27;59.22;99861.90;1739838;80;21191;-49
2021/04/29 05:14:30;;;;;;;12.80;2.47;;;;;;;7.30;59.32;99865.37;1742187;80;21564;-50
2021/04/29 05:16:58;;;;;;;5.10;2.10;;;;;;;7.34;59.45;99864.32;1742288;80;21245;-52
2021/04/29 05:19:26;;;;;;;1.70;1.43;;;;;;;7.40;59.47;99858.75;1742437;80;21537;-49
2021/04/29 05:21:53;;;;;;;13.93;1.90;;;;;;;7.46;59.48;99863.92;1739404;80;21221;-51
2021/04/29 05:24:20;;;;;;;10.90;2.33;;;;;;;7.52;59.69;99860.15;1719238;81;21175;-51
2021/04/29 05:26:48;;;;;;;3.27;1.80;;;;;;;7.60;59.69;99862.10;1739946;80;21788;-52
2021/04/29 05:29:15;;;;;;;4.10;2.10;;;;;;;7.68;59.63;99867.19;1740386;80;21208;-52
2021/04/29 05:31:44;;;;;;;2.80;2.00;;;;;;;7.75;59.69;99868.72;1717195;81;21216;-51
2021/04/29 05:34:12;;;;;;;4.57;1.97;;;;;;;7.82;59.67;99869.83;1723273;81;21151;-51
2021/04/29 05:36:39;;;;;;;2.07;1.80;;;;;;;7.92;59.63;99866.33;1719526;81;21540;-49
2021/04/29 05:39:07;;;;;;;4.60;1.53;;;;;;;8.01;59.59;99862.44;1743423;80;21207;-52
2021/04/29 05:41:34;;;;;;;5.77;2.10;;;;;;;8.11;59.50;99862.06;1742027;80;21624;-51
2021/04/29 05:44:02;;;;;;;7.33;4.53;;;;;;;8.21;59.61;99867.97;1719043;81;21517;-52
2021/04/29 05:46:29;;;;;;;12.17;6.47;;;;;;;8.32;59.41;99861.78;1723000;81;20993;-52
2021/04/29 05:48:56;;;;;;;12.50;5.93;;;;;;;8.44;59.34;99865.33;1714385;81;20950;-51
2021/04/29 05:51:24;;;;;;;7.07;3.10;;;;;;;8.54;59.00;99858.69;1720717;81;22017;-52
2021/04/29 05:53:51;;;;;;;9.33;5.83;;;;;;;8.65;59.24;99861.84;1718520;81;21141;-50
2021/04/29 05:56:18;;;;;;;11.47;5.27;;;;;;;8.76;58.89;99858.75;1741510;80;21148;-52
2021/04/29 05:58:45;;;;;;;6.33;3.87;;;;;;;8.88;58.64;99861.40;1742511;80;21123;-52
2021/04/29 06:01:12;;;;;;;1.97;1.43;;;;;;;8.96;58.68;99848.08;1742308;80;21767;-52
2021/04/29 06:03:39;;;;;;;3.33;1.70;;;;;;;9.06;58.75;99845.44;1685105;83;21348;-53
2021/04/29 06:06:07;;;;;;;5.53;1.33;;;;;;;9.18;58.67;99842.73;1691871;83;21191;-52
2021/04/29 06:08:34;;;;;;;2.70;1.10;;;;;;;9.30;58.52;99844.02;1720315;81;21110;-51
2021/04/29 06:11:02;;;;;;;4.20;1.40;;;;;;;9.42;58.65;99843.05;1713838;81;21192;-53
2021/04/29 06:13:30;;;;;;;5.17;1.40;;;;;;;9.56;58.24;99846.48;1716347;81;21112;-53
2021/04/29 06:15:57;;;;;;;1.40;1.00;;;;;;;9.70;57.82;99849.44;1720126;81;21158;-51
2021/04/29 06:18:24;;;;;;;2.13;1.20;;;;;;;9.81;57.23;99845.83;1719753;81;21136;-52
2021/04/29 06:20:53;;;;;;;2.17;1.67;;;;;;;9.93;56.81;99848.93;1715871;81;21136;-53
2021/04/29 06:23:20;;;;;;;1.73;1.63;;;;;;;10.00;56.57;99852.62;1707315;82;21890;-53
2021/04/29 06:25:47;;;;;;;4.80;1.50;;;;;;;10.07;56.34;99850.06;1677489;83;21139;-51
2021/04/29 06:28:14;;;;;;;2.80;1.07;;;;;;;10.15;55.99;99847.02;1740783;80;21527;-53
2021/04/29 06:30:42;;;;;;;14.30;1.53;;;;;;;10.22;55.74;99851.20;1743001;80;21155;-53
2021/04/29 06:33:09;;;;;;;1.30;1.00;;;;;;;10.31;55.97;99848.10;1713546;80;21203;-51
2021/04/29 06:35:36;;;;;;;5.50;1.40;;;;;;;10.45;55.83;99856.44;1704206;82;21242;-52
2021/04/29 06:38:04;;;;;;;1.13;0.80;;;;;;;10.60;55.12;99850.34;1742804;80;21183;-53
2021/04/29 06:40:31;;;;;;;2.20;1.10;;;;;;;10.75;55.17;99853.24;1735027;80;22123;-52
2021/04/29 06:42:58;;;;;;;2.47;1.10;;;;;;;10.90;54.42;99850.69;1741302;80;21163;-52
2021/04/29 06:45:25;;;;;;;1.80;0.90;;;;;;;11.07;53.96;99854.39;1741711;80;21179;-51
2021/04/29 06:47:54;;;;;;;1.80;0.77;;;;;;;11.21;53.02;99851.91;1740369;80;21158;-51
2021/04/29 06:50:21;;;;;;;3.57;0.70;;;;;;;11.33;52.53;99843.20;1717285;81;21167;-52
2021/04/29 06:52:49;;;;;;;3.83;0.70;;;;;;;11.44;52.19;99840.85;1702790;82;21572;-53
2021/04/29 06:55:16;;;;;;;0.87;0.80;;;;;;;11.55;51.52;99822.80;1685345;82;21606;-53
2021/04/29 06:57:43;;;;;;;0.93;0.80;;;;;;;11.63;51.11;99834.06;1720000;81;21187;-53
2021/04/29 07:00:13;;;;;;;3.27;0.87;;;;;;;11.72;51.25;99834.94;1724432;81;21148;-52
2021/04/29 07:02:42;;;;;;;2.47;0.70;;;;;;;11.83;50.78;99837.09;1665186;84;21710;-52
2021/04/29 07:05:11;;;;;;;0.70;0.70;;;;;;;11.92;50.50;99837.48;1664810;84;21508;-53
2021/04/29 07:07:40;;;;;;;0.87;0.70;;;;;;;12.00;50.14;99840.66;1722425;81;21182;-52
2021/04/29 07:10:11;;;;;;;1.67;0.60;;;;;;;12.05;49.82;99837.25;1721446;81;21231;-52
2021/04/29 07:12:40;;;;;;;1.12;0.68;;;;;;;12.08;49.72;99833.02;1722079;81;21244;-53
2021/04/29 07:15:08;;;;;;;6.58;1.05;;;;;;;12.16;49.34;99833.13;1723973;81;21172;-51
2021/04/29 07:17:35;;;;;;;3.57;0.80;;;;;;;12.22;49.51;99830.09;1718759;81;21374;-52
2021/04/29 07:20:04;;;;;;;0.70;0.70;;;;;;;12.31;49.00;99830.47;1720768;81;21186;-52
2021/04/29 07:22:32;;;;;;;1.00;0.80;;;;;;;12.42;48.95;99835.26;1720933;81;21266;-53
2021/04/29 07:24:59;;;;;;;2.80;0.65;;;;;;;12.53;48.65;99840.95;1719272;81;21688;-53
2021/04/29 07:27:26;;;;;;;0.90;0.80;;;;;;;12.61;48.17;99842.75;1721790;81;21243;-54
2021/04/29 07:29:53;;;;;;;0.93;0.82;;;;;;;12.67;47.59;99834.81;1720967;81;21646;-53
2021/04/29 07:32:21;;;;;;;2.35;0.80;;;;;;;12.71;47.75;99840.42;1724377;81;21177;-53
2021/04/29 07:34:48;;;;;;;0.75;0.57;;;;;;;12.77;48.11;99832.84;1725612;81;21631;-53
2021/04/29 07:37:16;;;;;;;2.02;0.78;;;;;;;12.87;47.78;99834.08;1723424;81;21179;-53
2021/04/29 07:39:43;;;;;;;1.70;0.80;;;;;;;12.93;46.77;99837.41;1720954;81;21673;-52
2021/04/29 07:42:10;;;;;;;1.10;0.70;;;;;;;12.89;46.78;99835.34;1723410;81;21221;-51
2021/04/29 07:44:39;;;;;;;14.73;1.32;;;;;;;12.84;46.92;99836.94;1723418;81;21815;-53
2021/04/29 07:47:06;;;;;;;2.75;0.88;;;;;;;12.83;47.12;99832.52;1722562;81;21170;-53
2021/04/29 07:49:36;;;;;;;0.90;0.72;;;;;;;12.84;47.24;99819.38;1719243;81;21203;-53
2021/04/29 07:52:05;;;;;;;1.67;1.00;;;;;;;12.91;47.45;99828.51;1720184;81;22698;-53
2021/04/29 07:54:32;;;;;;;3.15;1.00;;;;;;;13.00;47.28;99826.64;1721499;81;22317;-54
2021/04/29 07:56:59;;;;;;;5.00;1.00;;;;;;;13.08;46.86;99817.62;1721222;81;21223;-52
2021/04/29 08:02:05;;;;;;;3.77;0.70;;;;;;;13.28;46.90;99803.83;1868770;75;22006;-54
2021/04/29 08:04:34;;;;;;;6.37;0.72;;;;;;;13.34;46.26;99802.14;1840093;76;21061;-53
2021/04/29 08:07:01;;;;;;;4.20;0.75;;;;;;;13.44;46.33;99801.97;1778098;78;22858;-53
2021/04/29 08:09:29;;;;;;;1.40;0.78;;;;;;;13.53;46.13;99800.07;1802425;78;21000;-53
2021/04/29 08:11:56;;;;;;;1.35;0.80;;;;;;;13.66;46.34;99795.30;1784157;78;21021;-54
2021/04/29 08:14:24;;;;;;;0.98;0.72;;;;;;;13.78;45.65;99796.77;1782121;78;21219;-52
2021/04/29 08:16:51;;;;;;;2.62;0.82;;;;;;;13.88;45.12;99799.78;1803022;78;21111;-53
2021/04/29 08:19:19;;;;;;;1.80;0.80;;;;;;;13.92;45.12;99792.75;1781595;78;21372;-52
2021/04/29 08:21:47;;;;;;;1.10;0.70;;;;;;;14.02;45.07;99790.36;1802414;78;21230;-51
2021/04/29 08:24:14;;;;;;;3.40;1.00;;;;;;;14.09;44.66;99790.84;1805094;78;21175;-53
2021/04/29 08:26:42;;;;;;;4.92;0.90;;;;;;;14.16;44.17;99787.66;1806941;78;21328;-54
2021/04/29 08:29:10;;;;;;;1.10;0.70;;;;;;;14.21;44.64;99795.47;1762949;79;21162;-51
2021/04/29 08:31:38;;;;;;;3.33;0.88;;;;;;;14.29;43.94;99791.32;1777901;79;21734;-53
2021/04/29 08:34:07;;;;;;;2.70;1.10;;;;;;;14.34;43.79;99785.63;1800009;78;21128;-52
2021/04/29 08:36:35;;;;;;;2.35;0.80;;;;;;;14.37;43.85;99782.75;1788717;78;21611;-53
2021/04/29 08:39:04;;;;;;;7.85;1.00;;;;;;;14.41;43.34;99784.79;1778556;78;21163;-53
2021/04/29 08:41:32;;;;;;;2.33;1.00;;;;;;;14.39;43.27;99783.52;1780037;79;21104;-54
2021/04/29 08:43:59;;;;;;;19.67;2.20;;;;;;;14.34;43.23;99787.86;1781023;79;21372;-52
2021/04/29 08:46:26;;;;;;;5.53;1.20;;;;;;;14.30;43.41;99782.23;1784064;79;21145;-53
2021/04/29 08:48:56;;;;;;;1.00;0.90;;;;;;;14.31;43.88;99784.46;1775301;79;21103;-53
2021/04/29 08:51:24;;;;;;;12.07;1.92;;;;;;;14.34;43.32;99777.03;1803461;78;21124;-54
2021/04/29 08:53:51;;;;;;;3.65;0.80;;;;;;;14.33;43.24;99775.77;1806125;78;21431;-54
2021/04/29 08:56:22;;;;;;;1.72;0.80;;;;;;;14.31;43.66;99767.73;1778117;79;21211;-52
2021/04/29 08:58:51;;;;;;;1.02;0.72;;;;;;;14.25;42.90;99766.78;1781666;78;21191;-53
2021/04/29 09:01:18;;;;;;;3.08;0.70;;;;;;;14.21;42.85;99758.93;1755741;79;21122;-55
2021/04/29 09:03:46;;;;;;;0.80;0.65;;;;;;;14.18;42.69;99763.20;1801917;78;21414;-50
2021/04/29 09:06:13;;;;;;;2.85;0.60;;;;;;;14.16;42.82;99758.36;1800812;78;21095;-54
2021/04/29 09:08:41;;;;;;;1.52;0.60;;;;;;;14.18;42.43;99755.08;1805490;78;21361;-53
2021/04/29 09:11:17;;;;;;;1.95;0.68;;;;;;;14.20;42.53;99746.39;1779781;78;21388;-52
2021/04/29 09:14:00;;;;;;;0.85;0.53;;;;;;;14.24;42.41;99742.50;1778092;79;21405;-53
2021/04/29 09:16:43;;;;;;;0.88;0.60;;;;;;;14.30;42.13;99736.20;1778002;79;21126;-52
2021/04/29 09:19:24;;;;;;;2.52;0.50;;;;;;;14.34;42.21;99740.48;1780079;79;21119;-53
2021/04/29 09:21:53;;;;;;;2.20;0.60;;;;;;;14.42;42.30;99721.54;1781315;79;21373;-52
2021/04/29 09:24:38;;;;;;;5.45;0.70;;;;;;;14.52;41.89;99722.69;1778513;79;21166;-54
2021/04/29 09:30:01;;;;;;;1.73;0.60;;;;;;;14.67;41.93;99711.72;1823607;75;22679;-53
2021/04/29 09:32:32;;;;;;;0.75;0.50;;;;;;;14.68;41.74;99714.82;1795356;77;21955;-52
2021/04/29 09:34:59;;;;;;;3.55;0.68;;;;;;;14.72;42.12;99715.47;1769209;79;22373;-52
2021/04/29 09:37:39;;;;;;;4.28;0.55;;;;;;;14.76;41.78;99708.41;1749852;79;21186;-50
2021/04/29 09:40:25;;;;;;;0.93;0.65;;;;;;;14.81;42.05;99705.86;1790690;77;21634;-52
2021/04/29 09:42:57;;;;;;;1.32;0.60;;;;;;;14.90;42.65;99712.90;1777375;79;21068;-51
2021/04/29 09:45:33;;;;;;;2.85;0.72;;;;;;;15.05;42.91;99702.41;1769667;79;21075;-52
2021/04/29 09:48:08;;;;;;;3.55;0.60;;;;;;;15.17;41.53;99706.60;1773638;79;21802;-52
2021/04/29 09:50:42;;;;;;;2.20;0.60;;;;;;;15.22;41.34;99703.11;1774472;79;20993;-54
2021/04/29 09:53:15;;;;;;;11.15;1.45;;;;;;;15.25;41.22;99700.17;1769752;79;21195;-54
2021/04/29 09:55:49;;;;;;;0.70;0.60;;;;;;;15.29;41.24;99700.36;1771321;79;21165;-52
2021/04/29 09:58:18;;;;;;;2.10;0.50;;;;;;;15.33;40.83;99691.02;1768948;79;21505;-53
2021/04/29 10:00:51;;;;;;;0.75;0.60;;;;;;;15.35;40.48;99694.02;1767903;79;21365;-53
2021/04/29 10:03:20;;;;;;;0.70;0.60;;;;;;;15.41;40.67;99688.65;1770075;79;21198;-52
2021/04/29 10:05:52;;;;;;;1.10;0.60;;;;;;;15.47;40.60;99681.47;1764381;79;21048;-53
2021/04/29 10:08:17;;;;;;;1.77;0.60;;;;;;;15.51;40.02;99678.42;1769212;79;21562;-52
2021/04/29 10:10:47;;;;;;;1.45;0.60;;;;;;;15.54;40.40;99671.09;1767596;79;21178;-51
2021/04/29 10:13:18;;;;;;;1.98;0.50;;;;;;;15.58;39.74;99678.89;1767344;79;21292;-53
2021/04/29 10:15:46;;;;;;;0.50;0.50;;;;;;;15.60;39.37;99671.52;1767573;79;21206;-52
2021/04/29 10:18:13;;;;;;;2.65;0.40;;;;;;;15.62;39.51;99676.84;1769487;79;21210;-53
2021/04/29 10:20:48;;;;;;;0.57;0.40;;;;;;;15.64;39.24;99660.84;1765739;79;21242;-53
2021/04/29 10:23:19;;;;;;;1.15;0.50;;;;;;;15.68;39.15;99660.99;1775367;79;21112;-53
2021/04/29 10:25:55;;;;;;;2.50;0.50;;;;;;;15.72;38.75;99654.39;1764434;79;21686;-53
2021/04/29 10:28:30;;;;;;;0.60;0.50;;;;;;;15.73;37.77;99658.84;1767102;79;21264;-52
2021/04/29 10:31:02;;;;;;;4.72;0.60;;;;;;;15.73;37.97;99637.13;1763032;79;21162;-54
2021/04/29 10:33:35;;;;;;;2.47;0.60;;;;;;;15.73;37.69;99655.27;1769471;79;21526;-52
2021/04/29 10:36:11;;;;;;;0.80;0.60;;;;;;;15.72;37.53;99647.61;1770615;79;21099;-51
2021/04/29 10:38:39;;;;;;;4.78;0.60;;;;;;;15.70;37.62;99639.19;1764975;79;21364;-52
2021/04/29 10:41:22;;;;;;;1.35;0.50;;;;;;;15.68;38.07;99642.00;1767593;79;21186;-52
2021/04/29 10:43:51;;;;;;;1.90;0.60;;;;;;;15.71;38.70;99643.15;1766970;79;22408;-53
2021/04/29 10:46:28;;;;;;;0.90;0.60;;;;;;;15.76;38.64;99640.97;1768315;79;22581;-53
2021/04/29 10:48:56;;;;;;;0.78;0.70;;;;;;;15.81;38.92;99640.66;1767114;79;21114;-53
2021/04/29 10:51:36;;;;;;;1.25;0.68;;;;;;;15.86;39.07;99635.27;1771997;79;21417;-53
2021/04/29 10:54:23;;;;;;;1.95;0.60;;;;;;;15.91;39.12;99632.20;1768405;79;21136;-52
2021/04/29 10:57:11;;;;;;;1.35;0.60;;;;;;;15.95;38.96;99626.95;1764253;79;21613;-52
2021/04/29 10:59:48;;;;;;;0.70;0.50;;;;;;;15.99;39.18;99625.73;1766241;79;21205;-54
2021/04/29 11:02:36;;;;;;;4.70;0.60;;;;;;;16.06;38.92;99621.63;1764375;79;22243;-55
2021/04/29 11:05:07;;;;;;;0.90;0.70;;;;;;;16.09;38.71;99620.50;1766571;79;21675;-53
2021/04/29 11:07:44;;;;;;;0.98;0.62;;;;;;;16.11;39.03;99625.34;1769295;79;21505;-52
2021/04/29 11:10:13;;;;;;;0.80;0.60;;;;;;;16.13;38.87;99622.03;1770360;79;21177;-54
2021/04/29 11:12:45;;;;;;;1.55;0.60;;;;;;;16.13;38.83;99618.83;1766690;79;21186;-55
2021/04/29 11:15:38;;;;;;;2.75;0.47;;;;;;;16.16;39.08;99614.51;1765408;79;21207;-54
2021/04/29 11:18:13;;;;;;;2.25;0.50;;;;;;;16.23;39.12;99617.19;1765706;79;21562;-53
2021/04/29 11:20:52;;;;;;;9.88;0.60;;;;;;;16.31;38.60;99617.97;1765525;79;21119;-55
2021/04/29 11:23:28;;;;;;;0.50;0.50;;;;;;;16.37;38.55;99615.28;1765703;79;20973;-52
2021/04/29 11:26:07;;;;;;;2.75;0.50;;;;;;;16.43;37.95;99610.25;1769571;79;21174;-53
2021/04/29 11:28:35;;;;;;;1.72;0.57;;;;;;;16.43;38.22;99608.89;1767850;79;21339;-53
2021/04/29 11:31:04;;;;;;;0.93;0.57;;;;;;;16.50;37.95;99611.52;1746348;80;22425;-53
2021/04/29 11:33:35;;;;;;;2.17;0.50;;;;;;;16.51;38.35;99607.83;1717294;81;21316;-54
2021/04/29 11:36:23;;;;;;;0.68;0.60;;;;;;;16.55;38.25;99610.70;1745070;80;21247;-52
2021/04/29 11:38:56;;;;;;;3.05;0.60;;;;;;;16.61;37.51;99606.20;1746995;80;21133;-53
2021/04/29 11:41:26;;;;;;;0.50;0.50;;;;;;;16.64;37.37;99599.18;1764348;79;21212;-53
2021/04/29 11:44:07;;;;;;;0.70;0.50;;;;;;;16.68;37.35;99590.78;1744011;80;21376;-54
2021/04/29 11:46:35;;;;;;;2.08;0.50;;;;;;;16.70;37.35;99588.33;1743811;80;21224;-52
2021/04/29 11:49:05;;;;;;;1.32;0.53;;;;;;;16.72;37.40;99591.80;1750461;80;20955;-52
2021/04/29 11:51:47;;;;;;;0.60;0.57;;;;;;;16.75;37.21;99588.00;1745806;80;21971;-52
2021/04/29 11:56:56;;;;;;;1.20;0.50;;;;;;;16.75;37.20;99565.77;1865594;75;22672;-52
2021/04/29 11:59:26;;;;;;;0.70;0.57;;;;;;;16.72;37.27;99571.91;1777859;78;21154;-53
2021/04/29 12:01:56;;;;;;;0.70;0.50;;;;;;;16.74;36.91;99559.08;1800231;78;21187;-54